Time;durP1;ratioP1;P1;durP2;ratioP2;P2;SDS_P1;SDS_P2;PMS_P1;PMS_P2;Temp;Humidity;BMP_temperature;BMP_pressure;BME280_temperature;BME280_humidity;BME280_pressure;Samples;Min_cycle;Max_cycle;Signal;HPM_P1;HPM_P2
2021/07/30 00:00:24;;;;;;;6.80;2.10;;;18.00;99.90;;;;;;5093834;28;20489;-89
2021/07/30 00:02:52;;;;;;;2.73;2.30;;;18.00;99.90;;;;;;5093698;28;20485;-88
2021/07/30 00:05:19;;;;;;;3.90;2.43;;;18.00;99.90;;;;;;5093366;28;20534;-88
2021/07/30 00:07:45;;;;;;;2.60;2.10;;;17.90;99.90;;;;;;5093619;28;20481;-89
2021/07/30 00:10:12;;;;;;;3.30;2.13;;;17.90;99.90;;;;;;5093397;28;20602;-88
2021/07/30 00:12:39;;;;;;;2.90;2.20;;;17.90;99.90;;;;;;5083133;28;20479;-88
2021/07/30 00:15:07;;;;;;;2.50;2.27;;;17.90;99.90;;;;;;5076499;28;20486;-88
2021/07/30 00:17:34;;;;;;;10.20;2.40;;;17.90;99.90;;;;;;5076450;28;20452;-88
2021/07/30 00:20:02;;;;;;;3.93;1.97;;;17.80;99.90;;;;;;5076779;28;20578;-89
2021/07/30 00:22:29;;;;;;;3.03;1.80;;;17.80;99.90;;;;;;5076840;28;20451;-89
2021/07/30 00:24:55;;;;;;;2.20;1.83;;;17.80;99.90;;;;;;5076150;28;20443;-88
2021/07/30 00:27:26;;;;;;;5.07;2.03;;;17.70;99.90;;;;;;5076417;28;20802;-89
2021/07/30 00:29:52;;;;;;;2.20;2.00;;;17.70;99.90;;;;;;5076263;28;20459;-90
2021/07/30 00:32:19;;;;;;;5.10;2.60;;;17.70;99.90;;;;;;5076115;28;20476;-88
2021/07/30 00:34:46;;;;;;;3.93;2.10;;;17.70;99.90;;;;;;5076019;28;20534;-88
2021/07/30 00:37:13;;;;;;;5.17;2.30;;;17.60;99.90;;;;;;5075934;28;20942;-88
2021/07/30 00:39:40;;;;;;;2.43;2.23;;;17.60;99.90;;;;;;5075618;28;20566;-89
2021/07/30 00:42:07;;;;;;;3.10;2.23;;;17.60;99.90;;;;;;5076187;28;20538;-88
2021/07/30 00:44:33;;;;;;;2.03;1.83;;;17.60;99.90;;;;;;5076071;28;20534;-88
2021/07/30 00:47:01;;;;;;;6.13;2.33;;;17.50;99.90;;;;;;5075812;28;20542;-88
2021/07/30 00:49:28;;;;;;;2.30;1.80;;;17.50;99.90;;;;;;5075639;28;20486;-88
2021/07/30 00:51:54;;;;;;;8.40;2.53;;;17.50;99.90;;;;;;5075598;28;20486;-88
2021/07/30 00:54:24;;;;;;;3.53;2.27;;;17.40;99.90;;;;;;5075668;28;20543;-88
2021/07/30 00:56:52;;;;;;;3.70;2.60;;;17.40;99.90;;;;;;5075556;28;20885;-88
2021/07/30 00:59:18;;;;;;;3.27;2.20;;;17.40;99.90;;;;;;5075388;28;20570;-88
2021/07/30 01:01:45;;;;;;;3.07;2.30;;;17.40;99.90;;;;;;5075598;28;20879;-88
2021/07/30 01:04:11;;;;;;;4.50;2.53;;;17.30;99.90;;;;;;5075574;28;20479;-88
2021/07/30 01:06:38;;;;;;;2.37;2.17;;;17.30;99.90;;;;;;5075579;28;21001;-88
2021/07/30 01:09:04;;;;;;;5.10;1.80;;;17.30;99.90;;;;;;5075507;28;20477;-88
2021/07/30 01:11:32;;;;;;;6.20;2.53;;;17.30;99.90;;;;;;5078700;28;20511;-88
2021/07/30 01:13:59;;;;;;;2.37;2.10;;;17.30;99.90;;;;;;5095604;28;20490;-90
2021/07/30 01:16:25;;;;;;;3.60;2.00;;;17.20;99.90;;;;;;5095354;28;20451;-90
2021/07/30 01:18:52;;;;;;;5.33;2.07;;;17.20;99.90;;;;;;5095258;28;20561;-89
2021/07/30 01:21:23;;;;;;;1.93;1.73;;;17.20;99.90;;;;;;5094945;28;20490;-90
2021/07/30 01:23:51;;;;;;;2.23;2.03;;;17.10;99.90;;;;;;5094984;28;20447;-90
2021/07/30 01:26:19;;;;;;;3.47;2.10;;;17.10;99.90;;;;;;5095173;28;20511;-90
2021/07/30 01:28:48;;;;;;;3.13;2.60;;;17.10;99.90;;;;;;5095131;28;20478;-89
2021/07/30 01:31:15;;;;;;;6.50;2.50;;;17.10;99.90;;;;;;5094881;28;20442;-89
2021/07/30 01:33:42;;;;;;;5.03;2.87;;;17.10;99.90;;;;;;5094949;28;20500;-90
2021/07/30 01:36:08;;;;;;;3.10;2.30;;;17.00;99.90;;;;;;5094897;28;20529;-90
2021/07/30 01:38:35;;;;;;;5.07;2.00;;;17.10;99.90;;;;;;5094993;28;20865;-90
2021/07/30 01:41:12;;;;;;;2.10;1.63;;;17.10;99.90;;;;;;5095009;28;20489;-90
2021/07/30 01:43:40;;;;;;;3.47;2.90;;;17.00;99.90;;;;;;5094819;28;20454;-90
2021/07/30 01:46:06;;;;;;;3.93;2.20;;;17.00;99.90;;;;;;5094713;28;20456;-90
2021/07/30 01:48:33;;;;;;;2.60;2.40;;;17.00;99.90;;;;;;5094546;28;20485;-89
2021/07/30 01:51:00;;;;;;;4.20;2.70;;;17.00;99.90;;;;;;5094462;28;20489;-90
2021/07/30 01:53:26;;;;;;;3.80;2.17;;;17.00;99.90;;;;;;5094877;28;20538;-90
2021/07/30 01:55:53;;;;;;;4.83;2.10;;;17.00;99.90;;;;;;5094429;28;20533;-90
2021/07/30 01:58:21;;;;;;;2.30;2.00;;;16.90;99.90;;;;;;5094554;28;20450;-90
2021/07/30 02:00:49;;;;;;;7.37;2.83;;;16.90;99.90;;;;;;5094346;28;20485;-90
2021/07/30 02:03:17;;;;;;;4.60;2.60;;;16.90;99.90;;;;;;5094615;28;20529;-90
2021/07/30 02:05:44;;;;;;;5.17;2.40;;;16.80;99.90;;;;;;5094335;28;20482;-90
2021/07/30 02:08:10;;;;;;;2.10;1.93;;;16.80;99.90;;;;;;5094621;28;20501;-91
2021/07/30 02:10:39;;;;;;;5.03;2.03;;;16.80;99.90;;;;;;5094386;28;20542;-90
2021/07/30 02:15:51;;;;;;;2.50;2.30;;;16.70;99.90;;;;;;5073860;28;20446;-90
2021/07/30 02:18:17;;;;;;;3.10;2.77;;;16.70;99.90;;;;;;5073967;28;20471;-90
2021/07/30 02:20:44;;;;;;;2.40;2.20;;;16.70;99.90;;;;;;5073811;28;20552;-91
2021/07/30 02:23:10;;;;;;;2.70;2.13;;;16.70;99.90;;;;;;5073916;28;20539;-90
2021/07/30 02:25:37;;;;;;;2.50;2.30;;;16.70;99.90;;;;;;5073677;28;20535;-90
2021/07/30 02:28:04;;;;;;;3.73;2.60;;;16.60;99.90;;;;;;5073674;28;20482;-90
2021/07/30 02:30:30;;;;;;;2.47;1.90;;;16.60;99.90;;;;;;5073942;28;20538;-90
2021/07/30 02:32:58;;;;;;;3.90;2.20;;;16.60;99.90;;;;;;5073046;28;20490;-90
2021/07/30 02:35:25;;;;;;;3.77;2.83;;;16.60;99.90;;;;;;5073077;28;20479;-90
2021/07/30 02:37:51;;;;;;;2.40;2.20;;;16.60;99.90;;;;;;5073729;28;20502;-90
2021/07/30 02:40:18;;;;;;;4.23;2.30;;;16.60;99.90;;;;;;5073496;28;20534;-90
2021/07/30 02:42:44;;;;;;;2.40;2.20;;;16.50;99.90;;;;;;5073477;28;20516;-90
2021/07/30 02:45:12;;;;;;;4.40;2.63;;;16.50;99.90;;;;;;5073704;28;20530;-90
2021/07/30 02:47:38;;;;;;;2.30;2.00;;;16.50;99.90;;;;;;5073601;28;20479;-90
2021/07/30 02:50:07;;;;;;;3.27;2.20;;;16.50;99.90;;;;;;5073412;28;20479;-90
2021/07/30 02:52:34;;;;;;;3.43;2.30;;;16.50;99.90;;;;;;5073263;28;20984;-90
2021/07/30 02:55:00;;;;;;;2.80;2.47;;;16.50;99.90;;;;;;5073283;28;20483;-90
2021/07/30 02:57:27;;;;;;;3.87;2.40;;;16.50;99.90;;;;;;5073481;28;20838;-90
2021/07/30 02:59:53;;;;;;;2.97;2.60;;;16.50;99.90;;;;;;5073410;28;20507;-90
2021/07/30 03:02:20;;;;;;;3.07;2.70;;;16.50;99.90;;;;;;5073585;28;20859;-90
2021/07/30 03:04:46;;;;;;;3.80;2.83;;;16.50;99.90;;;;;;5073278;28;20538;-90
2021/07/30 03:07:14;;;;;;;3.43;3.13;;;16.50;99.90;;;;;;5073307;28;20443;-89
2021/07/30 03:09:40;;;;;;;4.70;2.87;;;16.50;99.90;;;;;;5073177;28;20861;-89
2021/07/30 03:12:08;;;;;;;2.73;2.40;;;16.50;99.90;;;;;;5081515;28;20522;-90
2021/07/30 03:14:34;;;;;;;4.90;2.30;;;16.50;99.90;;;;;;5093494;28;20485;-90
2021/07/30 03:17:01;;;;;;;6.40;2.50;;;16.50;99.90;;;;;;5093415;28;20479;-90
2021/07/30 03:19:27;;;;;;;3.40;2.80;;;16.50;99.90;;;;;;5093218;28;20568;-90
2021/07/30 03:21:54;;;;;;;2.80;2.50;;;16.50;99.90;;;;;;5093425;28;20478;-90
2021/07/30 03:24:22;;;;;;;2.67;2.40;;;16.50;99.90;;;;;;5093034;28;20885;-90
2021/07/30 03:26:48;;;;;;;4.93;2.70;;;16.50;99.90;;;;;;5093270;28;20489;-90
2021/07/30 03:29:15;;;;;;;3.80;2.70;;;16.60;99.90;;;;;;5093356;28;20531;-90
2021/07/30 03:31:41;;;;;;;3.70;2.30;;;16.60;99.90;;;;;;5093162;28;20960;-90
2021/07/30 03:34:08;;;;;;;8.37;2.87;;;16.60;99.90;;;;;;5093119;28;20572;-90
2021/07/30 03:36:34;;;;;;;2.80;2.30;;;16.70;99.90;;;;;;5093228;28;20538;-91
2021/07/30 03:39:01;;;;;;;2.10;1.90;;;16.70;99.90;;;;;;5092916;28;20482;-90
2021/07/30 03:41:29;;;;;;;2.87;2.27;;;16.80;99.90;;;;;;5093182;28;20523;-90
2021/07/30 03:43:55;;;;;;;4.63;2.30;;;16.80;99.90;;;;;;5093223;28;20516;-90
2021/07/30 03:46:22;;;;;;;2.77;2.57;;;16.90;99.90;;;;;;5095275;28;20984;-89
2021/07/30 03:48:48;;;;;;;2.80;2.60;;;16.90;99.90;;;;;;5097101;28;20474;-90
2021/07/30 03:51:15;;;;;;;3.53;2.70;;;16.90;99.90;;;;;;5096654;28;20533;-90
2021/07/30 03:53:42;;;;;;;3.40;2.60;;;17.00;99.90;;;;;;5096859;28;20533;-90
2021/07/30 03:56:13;;;;;;;2.80;2.43;;;17.00;99.90;;;;;;5096809;28;20502;-90
2021/07/30 03:58:42;;;;;;;3.97;2.53;;;17.10;99.90;;;;;;5097047;28;20446;-90
2021/07/30 04:01:09;;;;;;;4.73;2.30;;;17.10;99.90;;;;;;5096637;28;21073;-90
2021/07/30 04:03:35;;;;;;;10.03;2.97;;;17.10;99.90;;;;;;5096751;28;20499;-90
2021/07/30 04:06:02;;;;;;;2.70;2.47;;;17.20;99.90;;;;;;5096553;28;20534;-90
2021/07/30 04:08:29;;;;;;;2.80;2.60;;;17.10;99.90;;;;;;5096796;28;20802;-90
2021/07/30 04:10:56;;;;;;;2.87;2.67;;;17.10;99.90;;;;;;5096752;28;20569;-89
2021/07/30 04:13:22;;;;;;;4.90;3.00;;;17.10;99.90;;;;;;5077848;28;20477;-90
2021/07/30 04:15:50;;;;;;;6.93;2.50;;;17.10;99.90;;;;;;5076273;28;20490;-90
2021/07/30 04:18:16;;;;;;;3.40;2.63;;;17.10;99.90;;;;;;5076372;28;20486;-89
2021/07/30 04:20:43;;;;;;;3.60;2.80;;;17.10;99.90;;;;;;5076009;28;20510;-90
2021/07/30 04:23:10;;;;;;;4.40;2.80;;;17.00;99.90;;;;;;5076092;28;20961;-90
2021/07/30 04:25:40;;;;;;;4.60;3.10;;;17.00;99.90;;;;;;5075986;28;20446;-89
2021/07/30 04:28:07;;;;;;;3.70;3.27;;;17.00;99.90;;;;;;5076113;28;20447;-89
2021/07/30 04:30:33;;;;;;;7.13;3.07;;;17.10;99.90;;;;;;5076055;28;20478;-90
2021/07/30 04:33:01;;;;;;;6.37;2.57;;;17.00;99.90;;;;;;5075885;28;20857;-89
2021/07/30 04:35:28;;;;;;;4.00;2.67;;;17.10;99.90;;;;;;5075800;28;20946;-89
2021/07/30 04:37:56;;;;;;;4.60;2.53;;;17.10;99.90;;;;;;5076253;28;20486;-89
2021/07/30 04:40:23;;;;;;;6.93;2.57;;;17.10;99.90;;;;;;5075767;28;20478;-90
2021/07/30 04:42:49;;;;;;;6.10;2.93;;;17.20;99.90;;;;;;5075993;28;20486;-90
2021/07/30 04:45:16;;;;;;;7.03;3.00;;;17.20;99.90;;;;;;5075887;28;20856;-89
2021/07/30 04:47:42;;;;;;;3.43;2.80;;;17.20;99.90;;;;;;5075662;28;20486;-89
2021/07/30 04:50:11;;;;;;;4.70;3.10;;;17.30;99.90;;;;;;5075770;28;20479;-89
2021/07/30 04:52:37;;;;;;;5.87;2.40;;;17.30;99.90;;;;;;5075813;28;20521;-89
2021/07/30 04:55:04;;;;;;;3.63;2.43;;;17.40;99.90;;;;;;5075755;28;20539;-89
2021/07/30 04:57:31;;;;;;;6.60;3.00;;;17.50;99.90;;;;;;5074693;28;20554;-89
2021/07/30 04:59:57;;;;;;;14.77;11.50;;;17.50;99.90;;;;;;5075256;28;20515;-89
2021/07/30 05:02:24;;;;;;;15.77;11.93;;;17.60;99.90;;;;;;5075363;28;20546;-89
2021/07/30 05:04:50;;;;;;;5.80;3.63;;;17.60;99.90;;;;;;5074856;28;21028;-90
2021/07/30 05:07:18;;;;;;;3.03;2.80;;;17.70;99.90;;;;;;5075113;28;20835;-89
2021/07/30 05:09:45;;;;;;;4.60;3.10;;;17.70;99.90;;;;;;5074916;28;20490;-89
2021/07/30 05:12:11;;;;;;;4.90;3.13;;;17.70;99.90;;;;;;5083548;28;20870;-89
2021/07/30 05:14:37;;;;;;;7.63;3.00;;;17.70;99.90;;;;;;5094861;28;20442;-89
2021/07/30 05:17:05;;;;;;;4.60;2.60;;;17.80;99.90;;;;;;5095138;28;20881;-89
2021/07/30 05:19:31;;;;;;;5.20;3.00;;;17.80;99.90;;;;;;5095008;28;20495;-89
2021/07/30 05:21:58;;;;;;;6.50;2.97;;;17.90;99.90;;;;;;5094992;28;20489;-89
2021/07/30 05:24:26;;;;;;;7.83;2.70;;;17.90;99.90;;;;;;5094918;28;20486;-89
2021/07/30 05:26:53;;;;;;;12.93;3.30;;;18.00;99.90;;;;;;5094799;28;20451;-89
2021/07/30 05:29:19;;;;;;;2.77;2.50;;;18.10;99.90;;;;;;5094656;28;20450;-89
2021/07/30 05:31:46;;;;;;;6.28;2.80;;;18.10;99.90;;;;;;5094331;28;20539;-89
2021/07/30 05:34:13;;;;;;;9.40;3.20;;;18.30;99.90;;;;;;5094995;28;20224;-90
2021/07/30 05:36:41;;;;;;;9.37;4.50;;;18.50;99.90;;;;;;5095174;28;20537;-89
2021/07/30 05:39:08;;;;;;;6.30;3.13;;;18.50;99.90;;;;;;5095084;28;20483;-90
2021/07/30 05:41:36;;;;;;;5.30;2.57;;;18.60;99.90;;;;;;5094794;28;20509;-90
2021/07/30 05:44:02;;;;;;;7.73;2.90;;;18.70;99.90;;;;;;5094832;28;20482;-89
2021/07/30 05:46:29;;;;;;;5.70;3.23;;;18.70;99.90;;;;;;5094894;28;20496;-89
2021/07/30 05:48:57;;;;;;;4.50;2.80;;;18.90;99.90;;;;;;5094938;28;20485;-90
2021/07/30 05:51:23;;;;;;;4.53;3.00;;;19.00;99.90;;;;;;5094757;28;20817;-89
2021/07/30 05:53:50;;;;;;;4.23;3.00;;;19.10;99.90;;;;;;5094711;28;20493;-88
2021/07/30 05:56:16;;;;;;;2.70;2.50;;;19.20;99.90;;;;;;5094139;28;20510;-89
2021/07/30 05:58:44;;;;;;;8.20;2.73;;;19.40;99.90;;;;;;5094569;28;20862;-89
2021/07/30 06:01:12;;;;;;;3.63;2.83;;;19.60;99.90;;;;;;5094164;28;20517;-90
2021/07/30 06:03:39;;;;;;;2.40;2.13;;;19.90;99.90;;;;;;5094551;28;20454;-90
2021/07/30 06:06:06;;;;;;;4.27;2.10;;;20.30;99.90;;;;;;5094247;28;20949;-89
2021/07/30 06:08:33;;;;;;;3.90;2.53;;;20.70;99.90;;;;;;5093905;28;20542;-90
2021/07/30 06:10:59;;;;;;;2.83;2.60;;;21.10;99.90;;;;;;5093756;28;21012;-90
2021/07/30 06:13:26;;;;;;;3.40;2.17;;;21.60;99.90;;;;;;5075211;28;20530;-89
2021/07/30 06:15:54;;;;;;;4.43;2.27;;;21.90;99.90;;;;;;5074024;28;20458;-89
2021/07/30 06:18:20;;;;;;;5.30;2.57;;;22.30;99.90;;;;;;5073917;28;20546;-89
2021/07/30 06:20:47;;;;;;;2.50;2.30;;;22.60;99.90;;;;;;5073638;28;20479;-89
2021/07/30 06:23:13;;;;;;;6.77;2.70;;;22.90;99.90;;;;;;5073711;28;20465;-91
2021/07/30 06:25:40;;;;;;;2.83;2.57;;;23.20;99.90;;;;;;5073648;28;20478;-90
2021/07/30 06:28:07;;;;;;;3.67;2.27;;;23.50;99.90;;;;;;5073638;28;20473;-89
2021/07/30 06:30:33;;;;;;;5.27;2.47;;;23.70;99.90;;;;;;5073563;28;20545;-89
2021/07/30 06:33:08;;;;;;;3.73;2.67;;;23.90;99.90;;;;;;5073712;28;20885;-89
2021/07/30 06:35:34;;;;;;;20.53;3.30;;;24.10;99.90;;;;;;5073548;28;20450;-90
2021/07/30 06:38:01;;;;;;;3.27;2.17;;;24.30;99.90;;;;;;5073456;28;20531;-89
2021/07/30 06:40:27;;;;;;;3.97;3.23;;;24.50;99.90;;;;;;5073631;28;20574;-90
2021/07/30 06:42:54;;;;;;;6.43;2.53;;;24.70;99.90;;;;;;5073652;28;20471;-89
2021/07/30 06:45:20;;;;;;;3.00;2.70;;;24.90;99.90;;;;;;5073487;28;20565;-90
2021/07/30 06:47:47;;;;;;;6.83;2.83;;;25.00;99.90;;;;;;5073404;28;20542;-89
2021/07/30 06:50:15;;;;;;;3.83;2.60;;;25.20;99.90;;;;;;5073414;28;21017;-90
2021/07/30 06:52:41;;;;;;;4.63;2.47;;;25.30;99.90;;;;;;5073374;28;20470;-90
2021/07/30 06:55:08;;;;;;;2.80;2.10;;;25.30;99.90;;;;;;5073401;28;20531;-88
2021/07/30 06:57:35;;;;;;;4.13;2.70;;;25.40;99.90;;;;;;5073468;28;20502;-89
2021/07/30 07:00:01;;;;;;;5.30;2.80;;;25.50;99.90;;;;;;5073322;28;20544;-89
2021/07/30 07:02:28;;;;;;;4.80;2.60;;;25.50;99.90;;;;;;5073271;28;20447;-90
2021/07/30 07:04:54;;;;;;;8.20;3.00;;;25.60;99.90;;;;;;5073208;28;20547;-89
2021/07/30 07:07:22;;;;;;;2.57;2.23;;;25.60;99.90;;;;;;5073465;28;20546;-90
2021/07/30 07:09:51;;;;;;;5.27;2.50;;;25.60;99.90;;;;;;5073530;28;20451;-91
2021/07/30 07:12:17;;;;;;;9.30;2.37;;;25.80;99.90;;;;;;5083128;28;20534;-90
2021/07/30 07:14:44;;;;;;;2.77;2.17;;;25.90;99.90;;;;;;5093706;28;20542;-90
2021/07/30 07:17:10;;;;;;;4.23;2.33;;;26.00;99.90;;;;;;5093261;28;21028;-89
2021/07/30 07:19:37;;;;;;;2.63;2.43;;;26.00;99.90;;;;;;5093331;28;20542;-89
2021/07/30 07:22:04;;;;;;;6.27;2.37;;;26.00;99.90;;;;;;5096694;28;20520;-90
2021/07/30 07:24:32;;;;;;;4.40;2.60;;;26.00;99.90;;;;;;5097459;28;20461;-89
2021/07/30 07:26:58;;;;;;;4.27;2.10;;;26.00;99.90;;;;;;5097593;28;20508;-89
2021/07/30 07:29:27;;;;;;;2.77;2.40;;;26.10;99.90;;;;;;5097583;28;20486;-89
2021/07/30 07:31:53;;;;;;;4.40;3.37;;;26.20;99.90;;;;;;5097567;28;20446;-90
2021/07/30 07:34:20;;;;;;;7.23;2.50;;;26.30;99.90;;;;;;5097365;28;20446;-90
2021/07/30 07:36:47;;;;;;;5.53;2.77;;;26.40;99.90;;;;;;5097355;28;20446;-90
2021/07/30 07:39:14;;;;;;;6.60;2.67;;;26.40;99.90;;;;;;5097657;28;20446;-91
2021/07/30 07:41:44;;;;;;;2.87;2.30;;;26.50;99.90;;;;;;5098382;28;20510;-89
2021/07/30 07:44:13;;;;;;;4.63;2.40;;;26.50;99.90;;;;;;5097262;28;20473;-89
2021/07/30 07:46:39;;;;;;;4.77;2.77;;;26.50;99.50;;;;;;5096981;28;20537;-89
2021/07/30 07:49:06;;;;;;;5.33;2.43;;;26.50;99.90;;;;;;5096836;28;20493;-89
2021/07/30 07:51:32;;;;;;;4.80;2.30;;;26.50;99.90;;;;;;5096994;28;20507;-89
2021/07/30 07:54:02;;;;;;;7.03;2.40;;;26.50;99.70;;;;;;5096904;28;20482;-89
2021/07/30 07:56:28;;;;;;;5.40;3.17;;;26.50;99.90;;;;;;5096516;28;20513;-89
2021/07/30 07:58:56;;;;;;;3.57;2.50;;;26.60;98.90;;;;;;5096791;28;20489;-91
2021/07/30 08:01:23;;;;;;;3.47;2.70;;;26.60;99.40;;;;;;5096495;28;20478;-90
2021/07/30 08:03:49;;;;;;;5.00;2.70;;;26.50;98.90;;;;;;5097017;28;20489;-90
2021/07/30 08:06:18;;;;;;;4.47;3.37;;;26.50;98.40;;;;;;5096994;28;20458;-90
2021/07/30 08:08:45;;;;;;;4.47;2.83;;;26.60;97.80;;;;;;5096830;28;20451;-89
2021/07/30 08:11:11;;;;;;;4.90;3.00;;;26.60;98.00;;;;;;5096123;28;20533;-89
2021/07/30 08:13:38;;;;;;;2.80;2.60;;;26.60;98.40;;;;;;5076263;28;20483;-89
2021/07/30 08:16:07;;;;;;;5.13;2.63;;;26.50;98.40;;;;;;5076120;28;20451;-90
2021/07/30 08:18:33;;;;;;;3.87;2.70;;;26.50;97.70;;;;;;5076299;28;20485;-90
2021/07/30 08:21:00;;;;;;;8.13;3.07;;;26.60;97.90;;;;;;5076032;28;20533;-90
2021/07/30 08:23:27;;;;;;;4.30;2.83;;;26.60;97.30;;;;;;5076011;28;20447;-90
2021/07/30 08:25:54;;;;;;;5.23;3.00;;;26.70;97.60;;;;;;5076065;28;20534;-90
2021/07/30 08:28:20;;;;;;;4.93;3.00;;;26.80;97.90;;;;;;5075850;28;20474;-90
2021/07/30 08:30:47;;;;;;;4.23;2.67;;;27.00;96.90;;;;;;5076068;28;20858;-89
2021/07/30 08:33:16;;;;;;;5.23;3.00;;;27.10;96.50;;;;;;5074815;28;20504;-90
2021/07/30 08:35:42;;;;;;;5.33;3.10;;;27.00;96.00;;;;;;5075946;28;20451;-90
2021/07/30 08:38:09;;;;;;;4.50;3.07;;;26.90;96.90;;;;;;5075837;28;20486;-88
2021/07/30 08:40:38;;;;;;;5.50;3.30;;;26.80;96.90;;;;;;5075722;28;20502;-88
2021/07/30 08:43:04;;;;;;;3.80;2.83;;;26.80;96.10;;;;;;5075417;28;21005;-88
2021/07/30 08:45:31;;;;;;;4.10;2.83;;;26.70;96.50;;;;;;5075956;28;20479;-87
2021/07/30 08:48:00;;;;;;;5.40;3.40;;;26.60;97.00;;;;;;5075573;28;20526;-87
2021/07/30 08:50:28;;;;;;;6.83;3.50;;;26.30;97.40;;;;;;5075596;28;20452;-88
2021/07/30 08:52:57;;;;;;;7.20;3.30;;;26.00;96.80;;;;;;5075457;28;20487;-87
2021/07/30 08:55:29;;;;;;;5.33;3.17;;;25.80;96.60;;;;;;5075369;28;20451;-87
2021/07/30 08:57:56;;;;;;;3.50;3.20;;;25.70;96.80;;;;;;5075515;28;20817;-87
2021/07/30 09:00:24;;;;;;;4.13;2.70;;;25.70;96.50;;;;;;5075601;28;20486;-89
2021/07/30 09:02:50;;;;;;;6.13;2.93;;;25.60;96.50;;;;;;5075333;28;20898;-90
2021/07/30 09:05:31;;;;;;;4.70;2.90;;;25.50;96.60;;;;;;5075607;28;20447;-90
2021/07/30 09:07:59;;;;;;;2.70;2.50;;;25.50;96.20;;;;;;5075260;28;20546;-90
2021/07/30 09:10:30;;;;;;;5.20;2.30;;;25.60;96.40;;;;;;5075432;28;20448;-90
2021/07/30 09:13:12;;;;;;;4.73;3.10;;;25.60;95.80;;;;;;5090541;28;20526;-90
2021/07/30 09:15:39;;;;;;;6.20;2.60;;;25.60;95.50;;;;;;5095441;28;20489;-90
2021/07/30 09:18:06;;;;;;;5.40;2.77;;;25.60;95.30;;;;;;5095283;28;20478;-90
2021/07/30 09:20:33;;;;;;;5.13;2.50;;;25.50;95.60;;;;;;5095282;28;20450;-90
2021/07/30 09:23:00;;;;;;;8.30;2.30;;;25.60;95.60;;;;;;5095097;28;20561;-90
2021/07/30 09:25:34;;;;;;;5.70;2.77;;;25.60;95.60;;;;;;5095465;28;20489;-89
2021/07/30 09:28:04;;;;;;;4.33;2.97;;;25.60;95.30;;;;;;5095256;28;20855;-90
2021/07/30 09:30:31;;;;;;;3.40;2.23;;;25.70;95.00;;;;;;5095122;28;20492;-89
2021/07/30 09:32:58;;;;;;;1.93;1.73;;;25.90;95.00;;;;;;5094956;28;20456;-89
2021/07/30 09:35:24;;;;;;;3.00;2.40;;;26.00;94.60;;;;;;5095157;28;20485;-90
2021/07/30 09:38:16;;;;;;;7.47;3.33;;;25.90;94.90;;;;;;5095044;28;20482;-89
2021/07/30 09:40:43;;;;;;;5.93;2.53;;;25.80;95.30;;;;;;5094934;28;20458;-89
2021/07/30 09:43:25;;;;;;;4.20;2.70;;;25.80;95.10;;;;;;5094359;28;20573;-90
2021/07/30 09:46:10;;;;;;;4.57;2.60;;;25.90;95.30;;;;;;5092842;28;20588;-90
2021/07/30 09:48:48;;;;;;;5.47;2.50;;;26.00;94.40;;;;;;5094807;28;20485;-87
2021/07/30 09:51:15;;;;;;;4.57;2.60;;;26.20;94.20;;;;;;5094736;28;20476;-87
2021/07/30 09:53:44;;;;;;;3.50;2.40;;;26.40;94.30;;;;;;5094979;28;20477;-88
2021/07/30 09:56:13;;;;;;;5.23;2.70;;;26.60;94.70;;;;;;5094729;28;20466;-90
2021/07/30 09:58:40;;;;;;;5.63;2.53;;;26.70;93.40;;;;;;5094613;28;20453;-90
2021/07/30 10:01:07;;;;;;;3.87;2.40;;;26.50;93.70;;;;;;5094604;28;20537;-90
2021/07/30 10:03:36;;;;;;;3.70;2.80;;;26.30;94.10;;;;;;5094467;28;20491;-90
2021/07/30 10:06:03;;;;;;;4.57;2.30;;;26.00;93.80;;;;;;5094429;28;20489;-89
2021/07/30 10:08:31;;;;;;;5.63;2.70;;;25.80;94.00;;;;;;5094417;28;20451;-90
2021/07/30 10:10:59;;;;;;;4.40;2.47;;;25.70;94.10;;;;;;5094458;28;20516;-89
2021/07/30 10:13:35;;;;;;;2.77;2.30;;;25.70;94.50;;;;;;5075156;28;20479;-89
2021/07/30 10:16:03;;;;;;;3.67;2.60;;;25.90;94.50;;;;;;5074159;28;20446;-90
2021/07/30 10:18:30;;;;;;;4.17;2.17;;;25.90;94.90;;;;;;5073853;28;20479;-90
2021/07/30 10:21:01;;;;;;;4.27;2.30;;;26.00;94.70;;;;;;5073852;28;20447;-90
2021/07/30 10:23:29;;;;;;;4.00;2.80;;;26.00;94.20;;;;;;5074154;28;20456;-90
2021/07/30 10:26:00;;;;;;;3.37;2.80;;;26.10;94.50;;;;;;5073717;28;20814;-90
2021/07/30 10:28:29;;;;;;;7.67;3.43;;;26.10;94.70;;;;;;5073889;28;20459;-90
2021/07/30 10:30:58;;;;;;;4.20;2.90;;;26.30;94.80;;;;;;5073641;28;20451;-91
2021/07/30 10:33:46;;;;;;;2.40;2.20;;;26.40;94.80;;;;;;5073561;28;20462;-90
2021/07/30 10:36:13;;;;;;;4.60;2.60;;;26.50;94.20;;;;;;5074017;28;20783;-90
2021/07/30 10:38:42;;;;;;;2.40;1.97;;;26.40;93.60;;;;;;5073810;28;20545;-90
2021/07/30 10:41:19;;;;;;;3.23;2.50;;;26.30;93.80;;;;;;5073508;28;20459;-90
2021/07/30 10:44:05;;;;;;;2.17;2.03;;;26.30;93.60;;;;;;5073428;28;20459;-90
2021/07/30 10:46:32;;;;;;;4.20;2.57;;;26.20;92.70;;;;;;5073794;28;20799;-89
2021/07/30 10:48:59;;;;;;;2.97;2.20;;;26.20;92.70;;;;;;5073546;28;20467;-90
2021/07/30 10:51:27;;;;;;;3.20;2.40;;;26.10;93.30;;;;;;5073504;28;20478;-90
2021/07/30 10:53:57;;;;;;;2.53;2.13;;;26.10;93.20;;;;;;5073417;28;20452;-89
2021/07/30 10:56:50;;;;;;;4.30;2.43;;;26.10;93.00;;;;;;5072532;28;20474;-91
2021/07/30 10:59:19;;;;;;;4.63;2.53;;;26.20;93.60;;;;;;5073520;28;20454;-90
2021/07/30 11:01:59;;;;;;;4.63;2.47;;;26.30;92.90;;;;;;5073410;28;20510;-90
2021/07/30 11:04:26;;;;;;;3.20;2.30;;;26.40;93.20;;;;;;5073378;28;20867;-90
2021/07/30 11:06:58;;;;;;;4.30;2.53;;;26.50;93.50;;;;;;5073310;28;20497;-90
2021/07/30 11:09:38;;;;;;;3.30;2.23;;;26.60;93.00;;;;;;5073443;28;20451;-90
2021/07/30 11:12:12;;;;;;;3.80;2.23;;;26.70;92.70;;;;;;5081067;28;20442;-87
2021/07/30 11:14:40;;;;;;;4.00;2.50;;;26.50;92.20;;;;;;5093433;28;20531;-90
2021/07/30 11:17:08;;;;;;;5.37;2.60;;;26.40;92.30;;;;;;5093408;28;20454;-90
2021/07/30 11:19:36;;;;;;;4.47;2.50;;;26.50;92.50;;;;;;5093719;28;20446;-90
2021/07/30 11:22:05;;;;;;;5.23;2.77;;;26.50;92.80;;;;;;5093371;28;20478;-90
2021/07/30 11:24:37;;;;;;;5.43;2.57;;;26.60;92.00;;;;;;5093612;28;20478;-91
2021/07/30 11:27:05;;;;;;;2.93;2.47;;;26.50;91.50;;;;;;5093437;28;20480;-90
2021/07/30 11:29:32;;;;;;;5.50;2.07;;;26.40;92.00;;;;;;5093282;28;20798;-90
2021/07/30 11:32:00;;;;;;;4.33;2.13;;;26.30;92.10;;;;;;5093387;28;20503;-89
2021/07/30 11:34:29;;;;;;;5.60;2.63;;;26.20;91.50;;;;;;5093018;28;21022;-90
2021/07/30 11:36:56;;;;;;;4.57;2.37;;;26.10;91.70;;;;;;5093223;28;20457;-89
2021/07/30 11:39:31;;;;;;;6.47;2.63;;;26.10;91.80;;;;;;5093383;28;21011;-89
2021/07/30 11:41:58;;;;;;;5.93;2.57;;;26.20;92.10;;;;;;5093200;28;20462;-89
2021/07/30 11:44:26;;;;;;;4.07;2.53;;;26.30;92.10;;;;;;5092983;28;20447;-90
2021/07/30 11:46:54;;;;;;;6.17;2.80;;;26.30;92.70;;;;;;5093352;28;20489;-89
2021/07/30 11:49:29;;;;;;;3.43;2.10;;;26.40;92.00;;;;;;5093248;28;20446;-91
2021/07/30 11:51:56;;;;;;;3.00;2.10;;;26.30;91.80;;;;;;5093343;28;20450;-90
2021/07/30 11:54:24;;;;;;;3.80;2.30;;;26.30;91.50;;;;;;5093014;28;20638;-90
2021/07/30 11:56:51;;;;;;;3.70;2.30;;;26.30;92.10;;;;;;5092881;28;20474;-89
2021/07/30 11:59:18;;;;;;;7.80;2.20;;;26.30;92.00;;;;;;5093246;28;20484;-90
2021/07/30 12:02:00;;;;;;;4.40;2.53;;;26.40;92.20;;;;;;5093062;28;20451;-90
2021/07/30 12:04:26;;;;;;;7.97;2.80;;;26.50;92.10;;;;;;5092900;28;20482;-89
2021/07/30 12:06:56;;;;;;;3.43;2.57;;;26.60;93.10;;;;;;5094859;28;20500;-90
2021/07/30 12:09:23;;;;;;;3.87;2.70;;;26.60;92.80;;;;;;5096666;28;20537;-90
2021/07/30 12:11:52;;;;;;;4.03;2.20;;;26.70;92.20;;;;;;5091093;28;20497;-90
2021/07/30 12:14:20;;;;;;;2.50;1.90;;;26.80;92.30;;;;;;5076705;28;20874;-90
2021/07/30 12:16:49;;;;;;;3.60;2.30;;;26.80;91.20;;;;;;5076516;28;20485;-90
2021/07/30 12:19:15;;;;;;;3.10;2.20;;;26.90;91.90;;;;;;5076310;28;20530;-90
2021/07/30 12:21:55;;;;;;;7.00;2.60;;;27.00;92.20;;;;;;5075997;28;20486;-90
2021/07/30 12:24:21;;;;;;;4.77;2.57;;;27.00;92.50;;;;;;5076365;28;20483;-90
2021/07/30 12:26:48;;;;;;;3.23;2.40;;;27.00;92.60;;;;;;5076524;28;20549;-90
2021/07/30 12:29:36;;;;;;;2.77;2.57;;;27.00;92.50;;;;;;5076609;28;20486;-90
2021/07/30 12:32:18;;;;;;;8.80;2.57;;;27.00;92.70;;;;;;5076259;28;20475;-89
2021/07/30 12:34:59;;;;;;;3.37;1.70;;;27.00;92.60;;;;;;5076521;28;20840;-89
2021/07/30 12:37:26;;;;;;;6.80;2.53;;;27.20;92.50;;;;;;5076495;28;20447;-90
2021/07/30 12:39:55;;;;;;;3.10;2.20;;;27.40;92.20;;;;;;5076249;28;20451;-90
2021/07/30 12:42:23;;;;;;;3.10;2.10;;;27.50;92.40;;;;;;5076050;28;20940;-89
2021/07/30 12:45:08;;;;;;;4.73;2.77;;;27.60;91.90;;;;;;5075858;28;20479;-91
2021/07/30 12:47:39;;;;;;;3.90;2.27;;;27.70;92.20;;;;;;5076227;28;20455;-90
2021/07/30 12:50:25;;;;;;;3.00;2.17;;;27.80;92.30;;;;;;5075966;28;20447;-89
2021/07/30 12:53:13;;;;;;;5.00;3.13;;;27.80;92.30;;;;;;5075696;28;20520;-90